PSP - Palm Springs Intl

Pirep is a free, collaborative database of all public and private airports located within the United States. All pilots are welcome to contribute, edit, and improve any airport they have local knowledge about, no registration required.
Uploaded photos will be licensed under a CC BY-SA 4.0 license. Please only upload photos you have the rights to use.
Tags
Public
METAR / TAF
Museum
Flying Clubs
Edit Tags
Food
Camping
Lodging
Car Rental
Bicycles
Swimming
Golfing
Fishing
Hot Springs
Airpark
Upcoming Events
No upcoming events. Is anything happening here soon?
*
*
*

Where exactly on/near the airport is this event taking place?

Is there a webpage with more information for this event?

Who should be contacted for more information?

What is this event all about?

Repeat every
Description
Last updated: 2024-03-07 19:23:49 PST
Transient Parking
Fuel Location
Landing & Tie-down Fees
Crew Car Availability
Flying Clubs
Last updated: 2024-03-07 19:23:49 PST
WiFi Access
Airport Statistics
Location: Palm Springs, CA
Elevation: 476ft
Sectional: Los Angeles
Activation date: Jul 1942
Fuel: 100LL, A (prices)
Runway 13R/31L: 10,000ft
Runway 13L/31R: 4,952ft
Access: Open to the public
Current Weather — VFR
  • Weather data is strictly informational and not for flight planning purposes.
  • METAR
    2024-04-24 03:53:00 PDT
    Ceiling Wind Temperature Dewpoint Weather Visbility
    Sky clear Calm 62°F 48°F N/A SM
    Raw: KPSP 241053Z AUTO 00000KT CLR 17/09 A2986 RMK AO2 SLP110 T01720094 $
  • TAF
    2024-04-24 05:00:00 PDT – 2024-04-24 11:00:00 PDT
    Ceiling Wind Weather Visbility
    Sky clear Variable N/A 6SM
    Clouds: @ ft
    Raw: KPSP 241124Z 2412/2512 VRB05KT P6SM SKC FM241800 32012G20KT P6SM SKC FM242200 32020G30KT P6SM SKC FM250700 32010G20KT P6SM SKC FM251000 32007KT P6SM SKC
  • TAF
    2024-04-24 11:00:00 PDT – 2024-04-24 15:00:00 PDT
    Ceiling Wind Weather Visbility
    Sky clear 320° @ 12kt, gusts 20kt N/A 6SM
    Clouds: @ ft
    Raw: KPSP 241124Z 2412/2512 VRB05KT P6SM SKC FM241800 32012G20KT P6SM SKC FM242200 32020G30KT P6SM SKC FM250700 32010G20KT P6SM SKC FM251000 32007KT P6SM SKC
  • TAF
    2024-04-24 15:00:00 PDT – 2024-04-25 00:00:00 PDT
    Ceiling Wind Weather Visbility
    Sky clear 320° @ 20kt, gusts 30kt N/A 6SM
    Clouds: @ ft
    Raw: KPSP 241124Z 2412/2512 VRB05KT P6SM SKC FM241800 32012G20KT P6SM SKC FM242200 32020G30KT P6SM SKC FM250700 32010G20KT P6SM SKC FM251000 32007KT P6SM SKC
  • TAF
    2024-04-25 00:00:00 PDT – 2024-04-25 03:00:00 PDT
    Ceiling Wind Weather Visbility
    Sky clear 320° @ 10kt, gusts 20kt N/A 6SM
    Clouds: @ ft
    Raw: KPSP 241124Z 2412/2512 VRB05KT P6SM SKC FM241800 32012G20KT P6SM SKC FM242200 32020G30KT P6SM SKC FM250700 32010G20KT P6SM SKC FM251000 32007KT P6SM SKC
  • TAF
    2024-04-25 03:00:00 PDT – 2024-04-25 05:00:00 PDT
    Ceiling Wind Weather Visbility
    Sky clear 320° @ 7kt N/A 6SM
    Clouds: @ ft
    Raw: KPSP 241124Z 2412/2512 VRB05KT P6SM SKC FM241800 32012G20KT P6SM SKC FM242200 32020G30KT P6SM SKC FM250700 32010G20KT P6SM SKC FM251000 32007KT P6SM SKC
Click/tap to add an annotation marker to the map
Airport Webcams
No webcams added yet.
Direct links to live image URLs will be displayed inline on this page. URLs to separate webpages will be linked to.
URL:
Direct links to live image URLs will be displayed inline on this page. URLs to separate webpages will be linked to.
URL:
Remarks
  • Noise sensitive area all quadrants; exercise quiet flt procedures. for further info ctc duty supervisor (760) 318-3820.
  • Ry 13r designated calm wind ry.
  • No formation ldgs or takeoffs or overhead maneuvers
  • Access to/from fbo ramp via twy g lmtd to acft with wingspan of less than 40 ft.
  • Lengthy eng idling and run-ups on ramp area prohibited. ctc arpt ops 760-318-3820 for noise mediation procedures.
Comments
Leave a comment What was your experience like at this airport?